createdAt,value
2022-12-03T00:00:30.834Z,23.17
2022-12-03T00:02:57.433Z,23.63
2022-12-03T00:05:23.946Z,22.02
2022-12-03T00:07:50.490Z,20.13
2022-12-03T00:10:17.185Z,22.83
2022-12-03T00:12:43.638Z,21.85
2022-12-03T00:15:11.034Z,21.83
2022-12-03T00:17:37.843Z,24.05
2022-12-03T00:20:06.274Z,24.17
2022-12-03T00:22:32.756Z,25.43
2022-12-03T00:24:59.281Z,25.30
2022-12-03T00:27:25.799Z,23.55
2022-12-03T00:29:52.216Z,25.67
2022-12-03T00:32:18.624Z,21.65
2022-12-03T00:34:47.167Z,23.03
2022-12-03T00:37:13.689Z,24.13
2022-12-03T00:39:40.149Z,27.13
2022-12-03T00:42:06.592Z,21.35
2022-12-03T00:44:33.101Z,21.80
2022-12-03T00:46:59.667Z,25.33
2022-12-03T00:49:26.150Z,28.20
2022-12-03T00:51:52.653Z,24.67
2022-12-03T00:54:19.157Z,24.63
2022-12-03T00:56:45.588Z,22.45
2022-12-03T00:59:12.129Z,24.73
2022-12-03T01:01:38.682Z,23.80
2022-12-03T01:04:05.359Z,22.38
2022-12-03T01:06:31.823Z,23.08
2022-12-03T01:08:58.348Z,26.05
2022-12-03T01:11:41.247Z,22.97
2022-12-03T01:14:19.025Z,24.52
2022-12-03T01:16:46.260Z,24.33
2022-12-03T01:19:16.810Z,20.77
2022-12-03T01:21:45.509Z,24.58
2022-12-03T01:24:12.503Z,25.97
2022-12-03T01:26:38.990Z,26.05
2022-12-03T01:29:06.101Z,22.50
2022-12-03T01:31:51.228Z,20.35
2022-12-03T01:34:17.682Z,23.75
2022-12-03T01:36:44.212Z,24.83
2022-12-03T01:39:10.800Z,22.23
2022-12-03T01:41:38.130Z,27.17
2022-12-03T01:44:12.585Z,21.83
2022-12-03T01:46:40.852Z,25.50
2022-12-03T01:49:13.917Z,24.43
2022-12-03T01:51:40.376Z,22.92
2022-12-03T01:54:16.774Z,23.27
2022-12-03T01:56:43.604Z,27.98
2022-12-03T01:59:15.690Z,24.48
2022-12-03T02:01:42.454Z,23.17
2022-12-03T02:04:13.202Z,22.52
2022-12-03T02:06:40.376Z,23.42
2022-12-03T02:09:08.598Z,25.77
2022-12-03T02:11:39.079Z,23.25
2022-12-03T02:14:10.389Z,25.33
2022-12-03T02:16:38.058Z,23.52
2022-12-03T02:19:09.873Z,24.17
2022-12-03T02:21:41.444Z,23.92
2022-12-03T02:24:19.971Z,23.80
2022-12-03T02:26:46.540Z,27.90
2022-12-03T02:29:13.175Z,25.45
2022-12-03T02:31:39.690Z,28.45
2022-12-03T02:34:09.079Z,22.52
2022-12-03T02:36:37.353Z,22.75
2022-12-03T02:39:05.248Z,23.40
2022-12-03T02:41:50.656Z,28.05
2022-12-03T02:44:17.182Z,22.48
2022-12-03T02:46:43.810Z,22.75
2022-12-03T02:49:10.328Z,24.60
2022-12-03T02:51:36.772Z,20.53
2022-12-03T02:54:04.062Z,25.73
2022-12-03T02:56:32.445Z,25.45
2022-12-03T02:59:03.645Z,26.25
2022-12-03T03:01:30.405Z,22.38
2022-12-03T03:03:57.953Z,22.93
2022-12-03T03:06:24.786Z,23.55
2022-12-03T03:08:51.896Z,23.50
2022-12-03T03:11:18.550Z,24.70
2022-12-03T03:13:45.207Z,22.95
2022-12-03T03:16:12.286Z,27.40
2022-12-03T03:18:38.991Z,25.35
2022-12-03T03:21:06.452Z,25.67
2022-12-03T03:23:33.376Z,23.75
2022-12-03T03:26:04.697Z,24.35
2022-12-03T03:28:32.333Z,24.33
2022-12-03T03:31:02.164Z,27.70
2022-12-03T03:33:28.987Z,20.40
2022-12-03T03:35:55.816Z,26.63
2022-12-03T03:38:24.048Z,23.63
2022-12-03T03:40:51.909Z,23.67
2022-12-03T03:43:21.568Z,25.33
2022-12-03T03:45:48.967Z,24.40
2022-12-03T03:48:15.727Z,25.95
2022-12-03T03:50:43.342Z,23.02
2022-12-03T03:53:12.126Z,23.57
2022-12-03T03:55:39.469Z,22.65
2022-12-03T03:58:06.323Z,21.83
2022-12-03T04:00:32.938Z,22.52
2022-12-03T04:02:59.376Z,22.92
2022-12-03T04:05:26.202Z,23.77
2022-12-03T04:07:52.784Z,24.10
2022-12-03T04:10:37.935Z,23.70
2022-12-03T04:13:05.008Z,26.58
2022-12-03T04:15:31.753Z,23.23
2022-12-03T04:18:16.849Z,23.70
2022-12-03T04:20:43.715Z,26.10
2022-12-03T04:23:10.311Z,25.90
2022-12-03T04:26:08.638Z,22.05
2022-12-03T04:28:50.195Z,25.98
2022-12-03T04:31:35.157Z,23.30
2022-12-03T04:34:19.954Z,25.10
2022-12-03T04:36:47.180Z,22.02
2022-12-03T04:39:13.672Z,26.35
2022-12-03T04:41:40.164Z,25.58
2022-12-03T04:44:24.980Z,23.13
2022-12-03T04:46:51.380Z,22.25
2022-12-03T04:49:17.805Z,23.58
2022-12-03T04:51:44.309Z,23.02
2022-12-03T04:54:10.728Z,27.13
2022-12-03T04:56:37.193Z,27.87
2022-12-03T04:59:04.269Z,24.75
2022-12-03T05:01:30.806Z,27.80
2022-12-03T05:03:57.290Z,24.70
2022-12-03T05:06:23.733Z,26.08
2022-12-03T05:08:50.301Z,26.53
2022-12-03T05:11:16.771Z,23.80
2022-12-03T05:13:43.373Z,23.60
2022-12-03T05:16:10.368Z,25.42
2022-12-03T05:18:36.949Z,29.45
2022-12-03T05:21:03.740Z,28.53
2022-12-03T05:23:30.161Z,27.00
2022-12-03T05:25:56.587Z,29.00
2022-12-03T05:28:24.208Z,29.58
2022-12-03T05:30:51.721Z,26.85
2022-12-03T05:33:18.589Z,28.67
2022-12-03T05:35:44.998Z,28.00
2022-12-03T05:38:11.617Z,28.23
2022-12-03T05:40:38.157Z,30.70
2022-12-03T05:43:04.705Z,29.33
2022-12-03T05:45:36.977Z,27.87
2022-12-03T05:48:05.175Z,31.50
2022-12-03T05:50:34.066Z,31.88
2022-12-03T05:53:00.810Z,30.30
2022-12-03T05:55:27.622Z,30.35
2022-12-03T05:57:54.170Z,35.00
2022-12-03T06:00:26.272Z,31.83
2022-12-03T06:02:52.996Z,25.10
2022-12-03T06:05:20.957Z,26.55
2022-12-03T06:07:48.793Z,29.08
2022-12-03T06:10:19.340Z,30.97
2022-12-03T06:12:46.149Z,29.90
2022-12-03T06:15:15.125Z,33.75
2022-12-03T06:17:41.742Z,30.17
2022-12-03T06:20:11.192Z,26.95
2022-12-03T06:22:37.622Z,28.70
2022-12-03T06:25:07.103Z,30.17
2022-12-03T06:27:34.200Z,28.45
2022-12-03T06:30:00.616Z,27.23
2022-12-03T06:32:29.507Z,30.80
2022-12-03T06:34:56.181Z,31.10
2022-12-03T06:37:22.856Z,28.02
2022-12-03T06:39:49.286Z,29.77
2022-12-03T06:42:15.780Z,27.02
2022-12-03T06:44:42.274Z,31.08
2022-12-03T06:47:08.773Z,28.80
2022-12-03T06:49:35.290Z,27.33
2022-12-03T06:52:01.836Z,29.02
2022-12-03T06:54:28.392Z,27.83
2022-12-03T06:56:54.836Z,28.45
2022-12-03T06:59:21.302Z,26.47
2022-12-03T07:01:47.792Z,26.77
2022-12-03T07:04:14.288Z,24.25
2022-12-03T07:06:40.806Z,26.73
2022-12-03T07:09:07.371Z,25.95
2022-12-03T07:11:39.879Z,25.90
2022-12-03T07:14:08.315Z,24.50
2022-12-03T07:16:35.929Z,26.42
2022-12-03T07:19:03.829Z,24.65
2022-12-03T07:21:30.497Z,22.60
2022-12-03T07:23:56.936Z,26.07
2022-12-03T07:26:23.683Z,27.13
2022-12-03T07:28:50.190Z,26.77
2022-12-03T07:31:16.753Z,29.38
2022-12-03T07:33:43.345Z,28.23
2022-12-03T07:36:10.158Z,24.70
2022-12-03T07:38:36.767Z,27.42
2022-12-03T07:41:03.228Z,26.17
2022-12-03T07:43:29.752Z,29.30
2022-12-03T07:45:56.389Z,29.65
2022-12-03T07:48:22.863Z,28.57
2022-12-03T07:50:49.439Z,29.23
2022-12-03T07:53:16.012Z,28.50
2022-12-03T07:55:42.468Z,27.80
2022-12-03T07:58:09.341Z,29.88
2022-12-03T08:00:35.938Z,27.27
2022-12-03T08:03:02.422Z,28.92
2022-12-03T08:05:29.764Z,31.20
2022-12-03T08:07:56.638Z,25.08
2022-12-03T08:10:25.498Z,29.67
2022-12-03T08:12:53.617Z,29.83
2022-12-03T08:15:25.723Z,29.15
2022-12-03T08:17:55.997Z,29.67
2022-12-03T08:20:24.475Z,27.80
2022-12-03T08:22:53.272Z,27.73
2022-12-03T08:25:24.280Z,29.60
2022-12-03T08:27:53.309Z,31.33
2022-12-03T08:30:20.333Z,25.27
2022-12-03T08:32:47.975Z,30.95
2022-12-03T08:35:24.546Z,28.02
2022-12-03T08:38:01.240Z,30.13
2022-12-03T08:40:46.548Z,30.83
2022-12-03T08:43:25.900Z,33.42
2022-12-03T08:45:54.714Z,28.92
2022-12-03T08:48:27.229Z,30.15
2022-12-03T08:50:56.016Z,33.03
2022-12-03T08:53:30.450Z,28.60
2022-12-03T08:56:03.968Z,33.05
2022-12-03T08:58:40.425Z,25.45
2022-12-03T09:01:12.937Z,29.88
2022-12-03T09:03:47.505Z,27.77
2022-12-03T09:06:14.097Z,30.90
2022-12-03T09:08:40.553Z,30.05
2022-12-03T09:11:07.017Z,33.67
2022-12-03T09:13:33.769Z,28.02
2022-12-03T09:16:00.221Z,29.33
2022-12-03T09:18:26.738Z,30.23
2022-12-03T09:20:53.309Z,30.63
2022-12-03T09:23:19.787Z,31.80
2022-12-03T09:25:46.225Z,31.05
2022-12-03T09:28:12.688Z,32.73
2022-12-03T09:30:39.136Z,32.72
2022-12-03T09:33:05.719Z,27.92
2022-12-03T09:35:32.236Z,32.97
2022-12-03T09:37:58.671Z,32.85
2022-12-03T09:40:25.272Z,34.60
2022-12-03T09:42:52.170Z,34.10
2022-12-03T09:45:18.731Z,38.53
2022-12-03T09:47:48.693Z,34.75
2022-12-03T09:50:19.596Z,30.83
2022-12-03T09:52:46.924Z,28.33
2022-12-03T09:55:23.620Z,33.63
2022-12-03T09:57:52.355Z,29.98
2022-12-03T10:00:25.031Z,30.92
2022-12-03T10:02:54.114Z,27.27
2022-12-03T10:05:22.493Z,30.00
2022-12-03T10:07:50.727Z,26.05
2022-12-03T10:10:22.798Z,27.30
2022-12-03T10:12:50.686Z,28.42
2022-12-03T10:15:19.278Z,23.23
2022-12-03T10:17:47.706Z,27.67
2022-12-03T10:20:16.691Z,28.67
2022-12-03T10:22:43.234Z,28.55
2022-12-03T10:25:12.811Z,29.73
2022-12-03T10:27:40.172Z,31.75
2022-12-03T10:30:19.835Z,32.77
2022-12-03T10:32:51.227Z,24.63
2022-12-03T10:35:23.553Z,28.23
2022-12-03T10:38:03.768Z,33.60
2022-12-03T10:40:33.362Z,31.02
2022-12-03T10:43:20.188Z,29.33
2022-12-03T10:46:09.567Z,31.05
2022-12-03T10:48:36.728Z,30.70
2022-12-03T10:51:04.274Z,37.85
2022-12-03T10:53:32.986Z,29.77
2022-12-03T10:56:01.963Z,32.23
2022-12-03T10:58:40.049Z,31.90
2022-12-03T11:01:15.695Z,30.40
2022-12-03T11:03:42.354Z,27.90
2022-12-03T11:06:14.958Z,35.45
2022-12-03T11:08:44.604Z,29.93
2022-12-03T11:11:20.309Z,38.20
2022-12-03T11:13:50.682Z,34.50
2022-12-03T11:16:38.865Z,34.63
2022-12-03T11:19:38.652Z,36.00
2022-12-03T11:22:05.197Z,31.23
2022-12-03T11:24:34.421Z,30.67
2022-12-03T11:27:08.156Z,31.63
2022-12-03T11:29:58.678Z,23.92
2022-12-03T11:32:45.078Z,23.58
2022-12-03T11:35:14.197Z,28.63
2022-12-03T11:37:40.948Z,22.23
2022-12-03T11:40:16.609Z,23.13
2022-12-03T11:42:44.794Z,25.05
2022-12-03T11:45:16.268Z,20.50
2022-12-03T11:47:46.824Z,28.60
2022-12-03T11:50:23.315Z,25.83
2022-12-03T11:52:55.061Z,19.15
2022-12-03T11:55:35.745Z,23.58
2022-12-03T11:58:04.992Z,17.25
2022-12-03T12:00:32.252Z,17.80
2022-12-03T12:02:58.899Z,16.45
2022-12-03T12:05:25.412Z,20.70
2022-12-03T12:07:52.866Z,20.15
2022-12-03T12:10:39.230Z,21.17
2022-12-03T12:13:06.293Z,20.97
2022-12-03T12:15:38.667Z,22.60
2022-12-03T12:18:40.730Z,18.13
2022-12-03T12:21:44.258Z,18.23
2022-12-03T12:24:46.837Z,21.85
2022-12-03T13:12:36.431Z,26.10
2022-12-03T13:15:02.962Z,27.75
2022-12-03T13:17:29.499Z,29.95
2022-12-03T13:20:07.747Z,24.15
2022-12-03T13:22:34.660Z,25.60
2022-12-03T13:25:43.925Z,25.77
2022-12-03T13:28:07.989Z,26.17
2022-12-03T13:30:34.483Z,27.65
2022-12-03T13:33:13.283Z,32.90
2022-12-03T13:35:42.731Z,35.83
2022-12-03T13:38:15.335Z,47.15
2022-12-03T13:40:42.258Z,37.08
2022-12-03T13:43:16.905Z,39.08
2022-12-03T13:45:49.240Z,36.80
2022-12-03T13:48:23.131Z,35.97
2022-12-03T13:50:50.273Z,45.85
2022-12-03T13:53:25.808Z,41.53
2022-12-03T13:55:57.758Z,37.15
2022-12-03T13:58:24.197Z,46.25
2022-12-03T14:00:51.012Z,41.97
2022-12-03T14:03:17.664Z,40.35
2022-12-03T14:05:44.103Z,48.00
2022-12-03T14:08:10.576Z,44.15
2022-12-03T14:10:37.121Z,38.85
2022-12-03T14:13:03.595Z,37.23
2022-12-03T14:15:30.053Z,43.80
2022-12-03T14:17:56.542Z,41.63
2022-12-03T14:20:22.959Z,41.50
2022-12-03T14:22:49.480Z,32.53
2022-12-03T14:25:16.116Z,40.13
2022-12-03T14:27:42.625Z,39.10
2022-12-03T14:30:09.937Z,35.78
2022-12-03T14:32:36.354Z,40.03
2022-12-03T14:35:08.297Z,32.83
2022-12-03T14:37:38.390Z,34.13
2022-12-03T14:40:08.784Z,32.17
2022-12-03T14:42:36.529Z,29.70
2022-12-03T14:45:03.152Z,26.40
2022-12-03T14:47:29.592Z,25.30
2022-12-03T14:49:56.562Z,30.00
2022-12-03T14:52:23.329Z,25.70
2022-12-03T14:54:49.780Z,27.50
2022-12-03T14:57:16.505Z,24.15
2022-12-03T14:59:44.048Z,26.25
2022-12-03T15:02:11.610Z,30.00
2022-12-03T15:04:39.349Z,29.52
2022-12-03T15:07:06.183Z,27.20
2022-12-03T15:09:32.945Z,25.75
2022-12-03T15:12:00.097Z,28.15
2022-12-03T15:14:26.709Z,26.90
2022-12-03T15:16:53.197Z,23.08
2022-12-03T15:19:19.673Z,24.48
2022-12-03T15:21:48.356Z,20.85
2022-12-03T15:24:14.857Z,23.45
2022-12-03T15:26:41.365Z,25.33
2022-12-03T15:29:07.836Z,29.85
2022-12-03T15:31:34.496Z,33.92
2022-12-03T15:34:01.113Z,25.83
2022-12-03T15:36:27.598Z,28.58
2022-12-03T15:38:54.033Z,32.87
2022-12-03T15:41:21.276Z,33.67
2022-12-03T15:43:52.731Z,34.55
2022-12-03T15:46:22.516Z,36.08
2022-12-03T15:48:49.678Z,40.80
2022-12-03T15:51:16.365Z,41.97
2022-12-03T15:53:42.877Z,36.13
2022-12-03T15:56:09.529Z,39.33
2022-12-03T15:58:36.055Z,37.47
2022-12-03T16:01:02.583Z,39.17
2022-12-03T16:03:29.358Z,43.40
2022-12-03T16:05:56.005Z,43.38
2022-12-03T16:08:22.763Z,37.85
2022-12-03T16:10:49.390Z,44.90
2022-12-03T16:13:15.848Z,37.58
2022-12-03T16:15:42.382Z,48.43
2022-12-03T16:18:09.258Z,39.08
2022-12-03T16:20:35.740Z,43.83
2022-12-03T16:23:02.195Z,41.15
2022-12-03T16:25:28.743Z,40.92
2022-12-03T16:27:56.444Z,37.93
2022-12-03T16:30:24.537Z,38.97
2022-12-03T16:32:51.088Z,42.75
2022-12-03T16:35:17.582Z,40.38
2022-12-03T16:37:44.524Z,41.47
2022-12-03T16:40:11.368Z,40.63
2022-12-03T16:42:37.830Z,39.92
2022-12-03T16:45:04.609Z,37.08
2022-12-03T16:47:34.173Z,39.20
2022-12-03T16:50:07.551Z,36.63
2022-12-03T16:52:34.735Z,41.10
2022-12-03T16:55:01.452Z,35.90
2022-12-03T16:57:33.421Z,36.47
2022-12-03T17:00:00.397Z,42.17
2022-12-03T17:02:27.684Z,39.95
2022-12-03T17:04:54.663Z,38.93
2022-12-03T17:07:21.274Z,38.78
2022-12-03T17:09:47.820Z,34.58
2022-12-03T17:12:14.263Z,44.75
2022-12-03T17:14:40.721Z,39.92
2022-12-03T17:17:07.174Z,41.47
2022-12-03T17:19:33.642Z,43.05
2022-12-03T17:22:00.095Z,40.28
2022-12-03T17:24:26.587Z,36.33
2022-12-03T17:26:53.044Z,42.10
2022-12-03T17:29:19.541Z,47.37
2022-12-03T17:31:46.109Z,35.03
2022-12-03T17:34:12.617Z,38.47
2022-12-03T17:36:39.054Z,35.95
2022-12-03T17:39:05.509Z,40.97
2022-12-03T17:41:31.964Z,40.37
2022-12-03T17:43:58.438Z,35.92
2022-12-03T17:46:25.004Z,40.72
2022-12-03T17:48:51.519Z,40.15
2022-12-03T17:51:20.778Z,43.55
2022-12-03T17:53:47.280Z,40.50
2022-12-03T17:56:13.796Z,38.78
2022-12-03T17:58:40.264Z,44.63
2022-12-03T18:01:08.561Z,45.20
2022-12-03T18:03:35.088Z,40.78
2022-12-03T18:06:02.050Z,48.17
2022-12-03T18:08:28.780Z,45.63
2022-12-03T18:10:55.317Z,48.65
2022-12-03T18:13:22.109Z,37.30
2022-12-03T18:15:48.733Z,41.90
2022-12-03T18:18:15.209Z,44.20
2022-12-03T18:20:41.763Z,41.97
2022-12-03T18:23:08.222Z,39.00
2022-12-03T18:25:34.741Z,44.97
2022-12-03T18:28:01.168Z,48.47
2022-12-03T18:30:27.616Z,41.20
2022-12-03T18:32:54.433Z,38.78
2022-12-03T18:35:21.113Z,44.55
2022-12-03T18:37:49.499Z,38.00
2022-12-03T18:40:23.368Z,43.25
2022-12-03T18:42:50.170Z,42.53
2022-12-03T18:45:16.913Z,35.80
2022-12-03T18:47:43.919Z,44.80
2022-12-03T18:50:11.647Z,45.75
2022-12-03T18:52:38.568Z,41.38
2022-12-03T18:55:06.266Z,38.97
2022-12-03T18:57:32.682Z,33.67
2022-12-03T18:59:59.283Z,40.47
2022-12-03T19:02:54.148Z,34.92
2022-12-03T19:05:12.360Z,40.35
2022-12-03T19:07:38.972Z,40.53
2022-12-03T19:10:06.080Z,35.38
2022-12-03T19:12:33.126Z,44.08
2022-12-03T19:14:59.590Z,38.97
2022-12-03T19:17:27.217Z,39.15
2022-12-03T19:19:54.382Z,37.67
2022-12-03T19:22:21.266Z,42.45
2022-12-03T19:24:47.785Z,39.38
2022-12-03T19:27:14.599Z,34.78
2022-12-03T19:29:41.346Z,35.75
2022-12-03T19:32:08.941Z,35.40
2022-12-03T19:34:35.797Z,35.20
2022-12-03T19:37:02.274Z,39.50
2022-12-03T19:39:28.755Z,32.40
2022-12-03T19:41:55.266Z,39.13
2022-12-03T19:44:21.855Z,36.93
2022-12-03T19:46:51.173Z,44.80
2022-12-03T19:49:20.865Z,35.75
2022-12-03T19:51:47.616Z,33.17
2022-12-03T19:54:14.551Z,35.47
2022-12-03T19:56:41.028Z,35.40
2022-12-03T19:59:07.897Z,39.78
2022-12-03T20:01:35.757Z,38.30
2022-12-03T20:04:03.622Z,32.90
2022-12-03T20:06:35.371Z,35.15
2022-12-03T20:09:08.054Z,31.07
2022-12-03T20:11:35.449Z,38.85
2022-12-03T20:14:08.124Z,33.78
2022-12-03T20:16:35.546Z,33.58
2022-12-03T20:19:05.233Z,37.53
2022-12-03T20:21:33.405Z,35.97
2022-12-03T20:24:00.120Z,37.95
2022-12-03T20:26:27.014Z,33.53
2022-12-03T20:28:55.041Z,33.45
2022-12-03T20:31:26.894Z,33.08
2022-12-03T20:33:56.619Z,35.17
2022-12-03T20:36:23.957Z,33.55
2022-12-03T20:38:58.903Z,34.08
2022-12-03T20:41:25.595Z,34.20
2022-12-03T20:43:53.551Z,36.70
2022-12-03T20:46:21.974Z,32.13
2022-12-03T20:48:48.900Z,32.67
2022-12-03T20:51:18.266Z,38.20
2022-12-03T20:53:44.904Z,35.90
2022-12-03T20:56:18.553Z,34.05
2022-12-03T20:58:44.981Z,40.50
2022-12-03T21:01:15.872Z,37.83
2022-12-03T21:03:43.073Z,34.53
2022-12-03T21:06:10.315Z,38.70
2022-12-03T21:08:41.559Z,34.00
2022-12-03T21:11:14.922Z,35.97
2022-12-03T21:13:43.538Z,38.58
2022-12-03T21:16:13.458Z,33.22
2022-12-03T21:18:40.352Z,29.45
2022-12-03T21:21:08.559Z,32.22
2022-12-03T21:23:35.411Z,32.90
2022-12-03T21:26:26.829Z,36.13
2022-12-03T21:28:54.186Z,31.35
2022-12-03T21:31:25.157Z,36.50
2022-12-03T21:33:55.932Z,39.67
2022-12-03T21:36:23.370Z,34.93
2022-12-03T21:38:49.876Z,37.30
2022-12-03T21:41:17.193Z,33.92
2022-12-03T21:43:44.536Z,36.67
2022-12-03T21:47:11.455Z,35.67
2022-12-03T21:49:01.543Z,35.93
2022-12-03T21:51:28.072Z,34.55
2022-12-03T21:53:54.536Z,35.63
2022-12-03T21:56:21.026Z,35.13
2022-12-03T21:58:47.607Z,37.30
2022-12-03T22:01:18.487Z,36.30
2022-12-03T22:03:45.669Z,32.03
2022-12-03T22:06:12.539Z,32.67
2022-12-03T22:08:39.651Z,34.15
2022-12-03T22:11:12.293Z,38.92
2022-12-03T22:13:40.229Z,40.33
2022-12-03T22:16:12.209Z,37.40
2022-12-03T22:18:39.247Z,33.47
2022-12-03T22:21:07.545Z,35.35
2022-12-03T22:23:34.343Z,36.47
2022-12-03T22:26:03.070Z,39.20
2022-12-03T22:28:29.615Z,35.28
2022-12-03T22:30:56.654Z,39.28
2022-12-03T22:33:23.348Z,37.50
2022-12-03T22:36:01.063Z,35.15
2022-12-03T22:38:29.928Z,41.67
2022-12-03T22:40:56.934Z,37.85
2022-12-03T22:43:24.466Z,33.85
2022-12-03T22:45:55.257Z,33.08
2022-12-03T22:48:22.795Z,37.17
2022-12-03T22:50:51.091Z,37.70
2022-12-03T22:53:18.138Z,35.25
2022-12-03T22:55:44.604Z,46.40
2022-12-03T22:58:11.742Z,38.35
2022-12-03T23:00:40.712Z,38.67
2022-12-03T23:03:07.923Z,35.80
2022-12-03T23:05:38.515Z,40.50
2022-12-03T23:08:10.380Z,41.38
2022-12-03T23:10:40.276Z,36.65
2022-12-03T23:13:07.460Z,46.22
2022-12-03T23:15:34.133Z,39.20
2022-12-03T23:18:00.693Z,40.63
2022-12-03T23:20:27.700Z,40.30
2022-12-03T23:22:54.868Z,41.35
2022-12-03T23:25:22.137Z,37.25
2022-12-03T23:27:48.812Z,40.57
2022-12-03T23:30:16.738Z,39.80
2022-12-03T23:32:44.425Z,39.45
2022-12-03T23:35:12.371Z,39.03
2022-12-03T23:37:38.960Z,38.90
2022-12-03T23:40:06.237Z,43.73
2022-12-03T23:42:32.653Z,38.25
2022-12-03T23:44:59.167Z,43.25
2022-12-03T23:47:25.623Z,43.60
2022-12-03T23:49:52.276Z,41.70
2022-12-03T23:52:18.928Z,41.47
2022-12-03T23:54:45.626Z,45.83
2022-12-03T23:57:12.716Z,45.55
2022-12-03T23:59:39.693Z,44.75
